createdAt,value
2023-03-31T00:00:17.590Z,11.96
2023-03-31T00:03:24.083Z,11.96
2023-03-31T00:06:26.383Z,12.01
2023-03-31T00:09:29.852Z,12.01
2023-03-31T00:12:34.116Z,12.04
2023-03-31T00:15:35.910Z,12.01
2023-03-31T00:18:41.033Z,11.97
2023-03-31T00:21:49.323Z,11.92
2023-03-31T00:24:51.421Z,11.90
2023-03-31T00:27:54.694Z,11.90
2023-03-31T00:31:00.888Z,11.95
2023-03-31T00:34:03.130Z,11.93
2023-03-31T00:37:05.454Z,11.98
2023-03-31T00:40:12.057Z,11.97
2023-03-31T00:43:28.881Z,11.96
2023-03-31T00:46:34.578Z,11.94
2023-03-31T00:49:40.527Z,11.89
2023-03-31T00:52:42.381Z,11.86
2023-03-31T00:55:47.158Z,11.92
2023-03-31T00:58:50.994Z,12.03
2023-03-31T01:01:53.937Z,11.97
2023-03-31T01:05:02.479Z,11.99
2023-03-31T01:08:06.294Z,12.00
2023-03-31T01:11:11.745Z,11.98
2023-03-31T01:14:15.432Z,11.99
2023-03-31T01:17:22.429Z,11.97
2023-03-31T01:20:37.302Z,11.93
2023-03-31T01:24:10.719Z,11.98
2023-03-31T01:27:33.738Z,11.97
2023-03-31T01:30:52.292Z,11.95
2023-03-31T01:34:26.220Z,11.95
2023-03-31T01:38:13.031Z,11.92
2023-03-31T01:41:31.157Z,11.83
2023-03-31T01:44:47.382Z,11.74
2023-03-31T01:47:58.043Z,11.72
2023-03-31T01:51:03.283Z,11.79
2023-03-31T01:54:13.638Z,11.77
2023-03-31T01:57:23.253Z,11.74
2023-03-31T02:00:29.616Z,11.81
2023-03-31T02:03:37.197Z,11.85
2023-03-31T02:06:43.811Z,11.81
2023-03-31T02:09:50.599Z,11.82
2023-03-31T02:12:55.758Z,11.83
2023-03-31T02:16:02.947Z,11.86
2023-03-31T02:19:06.331Z,11.89
2023-03-31T02:22:09.692Z,11.96
2023-03-31T02:25:19.530Z,12.02
2023-03-31T02:28:28.335Z,11.98
2023-03-31T02:31:44.324Z,11.74
2023-03-31T02:34:46.279Z,11.63
2023-03-31T02:37:49.936Z,11.51
2023-03-31T02:40:51.808Z,11.42
2023-03-31T02:43:54.986Z,11.20
2023-03-31T02:46:58.665Z,11.14
2023-03-31T02:50:02.831Z,11.10
2023-03-31T02:53:17.488Z,11.11
2023-03-31T02:56:32.812Z,11.18
2023-03-31T02:59:47.889Z,11.17
2023-03-31T03:03:14.670Z,11.12
2023-03-31T03:06:27.753Z,11.07
2023-03-31T03:09:45.504Z,11.00
2023-03-31T03:12:56.229Z,10.99
2023-03-31T03:16:06.173Z,11.01
2023-03-31T03:19:08.602Z,11.01
2023-03-31T03:22:11.677Z,11.06
2023-03-31T03:25:17.332Z,11.10
2023-03-31T03:28:21.871Z,11.11
2023-03-31T03:31:26.465Z,11.15
2023-03-31T03:34:28.415Z,11.14
2023-03-31T03:37:31.351Z,11.18
2023-03-31T03:40:34.938Z,11.18
2023-03-31T03:43:37.300Z,11.18
2023-03-31T03:46:41.138Z,11.20
2023-03-31T03:49:43.466Z,11.28
2023-03-31T03:52:46.224Z,11.29
2023-03-31T03:55:49.679Z,11.30
2023-03-31T03:58:51.551Z,11.30
2023-03-31T04:01:54.767Z,11.30
2023-03-31T04:04:56.902Z,11.27
2023-03-31T04:07:59.350Z,11.21
2023-03-31T04:11:01.605Z,11.28
2023-03-31T04:14:03.629Z,11.37
2023-03-31T04:17:07.604Z,11.39
2023-03-31T04:20:11.556Z,11.44
2023-03-31T04:23:14.865Z,11.45
2023-03-31T04:26:27.700Z,11.44
2023-03-31T04:29:33.607Z,11.31
2023-03-31T04:32:37.454Z,11.44
2023-03-31T04:35:50.293Z,11.48
2023-03-31T04:38:54.785Z,11.56
2023-03-31T04:41:58.745Z,11.53
2023-03-31T04:45:00.564Z,11.57
2023-03-31T04:48:04.239Z,11.58
2023-03-31T04:51:07.239Z,11.52
2023-03-31T04:54:10.858Z,11.33
2023-03-31T04:57:13.419Z,11.19
2023-03-31T05:00:16.574Z,10.99
2023-03-31T05:03:20.663Z,10.92
2023-03-31T05:06:22.535Z,10.88
2023-03-31T05:09:28.096Z,10.84
2023-03-31T05:12:30.012Z,10.76
2023-03-31T05:15:33.935Z,10.68
2023-03-31T05:18:39.957Z,10.61
2023-03-31T05:21:48.958Z,10.60
2023-03-31T05:24:50.860Z,10.51
2023-03-31T05:27:52.738Z,10.54
2023-03-31T05:30:54.437Z,10.49
2023-03-31T05:33:57.553Z,10.58
2023-03-31T05:37:01.003Z,10.58
2023-03-31T05:40:06.193Z,10.61
2023-03-31T05:43:08.133Z,10.57
2023-03-31T05:46:10.155Z,10.60
2023-03-31T05:49:16.312Z,10.70
2023-03-31T05:52:18.380Z,10.63
2023-03-31T05:55:20.330Z,10.63
2023-03-31T05:58:23.508Z,10.60
2023-03-31T06:01:27.664Z,10.55
2023-03-31T06:04:32.779Z,10.53
2023-03-31T06:07:34.995Z,10.42
2023-03-31T06:10:38.769Z,10.46
2023-03-31T06:13:41.482Z,10.46
2023-03-31T06:16:44.252Z,10.42
2023-03-31T06:19:47.844Z,10.39
2023-03-31T06:22:49.645Z,10.31
2023-03-31T06:25:52.157Z,10.34
2023-03-31T06:28:54.334Z,10.40
2023-03-31T06:31:57.089Z,10.42
2023-03-31T06:35:00.340Z,10.51
2023-03-31T06:38:05.971Z,10.63
2023-03-31T06:41:09.562Z,10.75
2023-03-31T06:44:11.573Z,10.86
2023-03-31T06:47:13.606Z,10.87
2023-03-31T06:50:17.024Z,10.90
2023-03-31T06:53:18.775Z,10.86
2023-03-31T06:56:22.012Z,10.94
2023-03-31T06:59:24.023Z,10.92
2023-03-31T07:02:26.515Z,11.04
2023-03-31T07:05:30.577Z,11.07
2023-03-31T07:08:32.796Z,11.09
2023-03-31T07:11:34.937Z,10.99
2023-03-31T07:14:37.048Z,11.02
2023-03-31T07:17:41.962Z,11.05
2023-03-31T07:20:50.483Z,11.04
2023-03-31T07:23:52.613Z,11.12
2023-03-31T07:26:54.387Z,11.11
2023-03-31T07:30:01.427Z,11.05
2023-03-31T07:33:03.634Z,11.05
2023-03-31T07:36:12.633Z,11.05
2023-03-31T07:39:20.774Z,11.16
2023-03-31T07:42:22.625Z,11.24
2023-03-31T07:45:26.445Z,11.29
2023-03-31T07:48:28.775Z,11.35
2023-03-31T07:51:31.960Z,11.32
2023-03-31T07:54:33.944Z,11.27
2023-03-31T07:57:40.473Z,11.25
2023-03-31T08:00:43.046Z,11.08
2023-03-31T08:03:47.413Z,9.99
2023-03-31T08:06:51.701Z,10.05
2023-03-31T08:09:54.936Z,9.94
2023-03-31T08:12:56.813Z,9.93
2023-03-31T08:15:58.644Z,10.03
2023-03-31T08:19:01.900Z,9.83
2023-03-31T08:22:05.945Z,9.94
2023-03-31T08:25:08.888Z,10.17
2023-03-31T08:28:14.206Z,10.24
2023-03-31T08:31:17.330Z,10.17
2023-03-31T08:34:25.392Z,10.34
2023-03-31T08:37:28.888Z,10.28
2023-03-31T08:40:33.009Z,10.20
2023-03-31T08:43:44.045Z,10.19
2023-03-31T08:46:47.755Z,10.14
2023-03-31T08:49:55.664Z,10.16
2023-03-31T08:53:06.449Z,10.30
2023-03-31T08:56:16.200Z,10.47
2023-03-31T08:59:26.261Z,10.59
2023-03-31T09:02:36.974Z,10.53
2023-03-31T09:06:00.611Z,10.41
2023-03-31T09:09:26.711Z,10.58
2023-03-31T09:12:37.998Z,10.66
2023-03-31T09:15:44.081Z,10.79
2023-03-31T09:18:47.153Z,10.77
2023-03-31T09:21:53.364Z,10.97
2023-03-31T09:25:01.998Z,10.85
2023-03-31T09:28:13.483Z,10.71
2023-03-31T09:31:19.872Z,10.74
2023-03-31T09:34:25.959Z,10.63
2023-03-31T09:37:32.762Z,10.28
2023-03-31T09:40:36.040Z,9.81
2023-03-31T09:43:44.672Z,9.63
2023-03-31T09:46:46.699Z,9.36
2023-03-31T09:49:53.440Z,9.25
2023-03-31T09:53:00.710Z,9.28
2023-03-31T09:56:47.407Z,9.21
2023-03-31T09:59:51.779Z,9.26
2023-03-31T10:02:54.922Z,9.38
2023-03-31T10:05:59.020Z,9.75
2023-03-31T10:09:03.824Z,10.09
2023-03-31T10:12:08.995Z,10.29
2023-03-31T10:15:21.248Z,10.18
2023-03-31T10:18:33.797Z,10.26
2023-03-31T10:21:37.413Z,10.48
2023-03-31T10:24:42.463Z,10.85
2023-03-31T10:27:48.972Z,11.32
2023-03-31T10:30:53.696Z,11.30
2023-03-31T10:33:56.065Z,11.35
2023-03-31T10:36:58.541Z,11.55
2023-03-31T10:40:05.528Z,11.51
2023-03-31T10:43:16.386Z,11.59
2023-03-31T10:46:19.358Z,11.15
2023-03-31T10:49:26.792Z,11.13
2023-03-31T10:52:28.571Z,11.01
2023-03-31T10:55:36.840Z,11.21
2023-03-31T10:59:04.700Z,11.43
2023-03-31T11:02:42.478Z,11.48
2023-03-31T11:05:52.111Z,11.46
2023-03-31T11:09:07.259Z,11.59
2023-03-31T11:12:19.096Z,11.83
2023-03-31T11:15:27.368Z,11.58
2023-03-31T11:18:55.878Z,11.82
2023-03-31T11:22:06.860Z,11.69
2023-03-31T11:25:22.087Z,11.70
2023-03-31T11:28:38.407Z,11.65
2023-03-31T11:31:50.864Z,11.73
2023-03-31T11:35:05.661Z,11.90
2023-03-31T11:38:24.116Z,12.11
2023-03-31T11:41:34.224Z,12.42
2023-03-31T11:44:42.895Z,12.72
2023-03-31T11:47:49.730Z,12.98
2023-03-31T11:50:52.463Z,13.09
2023-03-31T11:53:58.957Z,13.21
2023-03-31T11:57:07.319Z,13.39
2023-03-31T12:00:16.511Z,14.09
2023-03-31T12:03:23.913Z,13.91
2023-03-31T12:06:30.540Z,13.48
2023-03-31T12:09:38.354Z,13.62
2023-03-31T12:12:43.841Z,13.59
2023-03-31T12:15:54.044Z,13.58
2023-03-31T12:19:10.883Z,13.75
2023-03-31T12:22:19.049Z,14.21
2023-03-31T12:25:27.898Z,14.35
2023-03-31T12:28:33.046Z,14.49
2023-03-31T12:31:38.819Z,14.37
2023-03-31T12:34:48.479Z,14.79
2023-03-31T12:41:04.602Z,15.21
2023-03-31T12:44:24.465Z,14.75
2023-03-31T12:47:42.536Z,15.01
2023-03-31T12:50:58.475Z,15.06
2023-03-31T12:54:23.009Z,15.05
2023-03-31T12:57:27.154Z,14.63
2023-03-31T13:00:31.149Z,14.79
2023-03-31T13:04:51.069Z,15.07
2023-03-31T13:07:52.993Z,14.42
2023-03-31T13:10:57.943Z,14.50
2023-03-31T13:14:02.596Z,14.56
2023-03-31T13:17:24.883Z,14.16
2023-03-31T13:20:35.932Z,13.74
2023-03-31T13:23:46.596Z,14.26
2023-03-31T13:26:53.432Z,14.06
2023-03-31T13:29:56.346Z,13.95
2023-03-31T13:33:13.447Z,13.88
2023-03-31T13:36:55.406Z,13.71
2023-03-31T13:40:23.779Z,13.50
2023-03-31T13:43:56.094Z,13.43
2023-03-31T13:47:18.018Z,13.55
2023-03-31T13:50:37.650Z,13.55
2023-03-31T13:54:15.036Z,13.35
2023-03-31T13:58:19.974Z,13.45
2023-03-31T14:01:41.358Z,13.29
2023-03-31T14:05:15.818Z,13.36
2023-03-31T14:08:27.960Z,13.32
2023-03-31T14:11:32.407Z,13.71
2023-03-31T14:14:34.186Z,13.81
2023-03-31T14:17:38.631Z,13.59
2023-03-31T14:21:05.246Z,13.58
2023-03-31T14:24:17.743Z,13.34
2023-03-31T14:27:39.209Z,13.54
2023-03-31T14:30:52.776Z,13.67
2023-03-31T14:34:21.274Z,13.87
2023-03-31T14:37:24.464Z,14.57
2023-03-31T14:40:26.647Z,15.24
2023-03-31T14:43:38.748Z,14.49
2023-03-31T14:46:42.104Z,14.23
2023-03-31T14:49:44.072Z,13.82
2023-03-31T14:52:47.666Z,13.71
2023-03-31T14:55:58.665Z,14.05
2023-03-31T14:59:10.228Z,13.81
2023-03-31T15:02:19.056Z,13.42
2023-03-31T15:05:29.438Z,13.03
2023-03-31T15:08:32.891Z,12.65
2023-03-31T15:11:35.939Z,12.54
2023-03-31T15:14:48.909Z,12.37
2023-03-31T15:17:51.736Z,10.87
2023-03-31T15:20:53.789Z,10.49
2023-03-31T15:24:02.610Z,10.11
2023-03-31T15:27:08.793Z,10.21
2023-03-31T15:30:19.886Z,10.54
2023-03-31T15:33:29.239Z,10.78
2023-03-31T15:36:32.798Z,10.95
2023-03-31T15:39:39.380Z,11.22
2023-03-31T15:43:01.578Z,11.63
2023-03-31T15:46:19.808Z,11.93
2023-03-31T15:49:27.120Z,11.63
2023-03-31T15:52:33.904Z,11.66
2023-03-31T15:58:59.527Z,11.71
2023-03-31T16:02:04.254Z,11.81
2023-03-31T16:05:10.832Z,11.81
2023-03-31T16:08:32.372Z,11.86
2023-03-31T16:11:39.018Z,11.83
2023-03-31T16:14:51.279Z,11.94
2023-03-31T16:17:59.151Z,11.93
2023-03-31T16:21:05.897Z,11.95
2023-03-31T16:24:08.532Z,11.91
2023-03-31T16:27:10.514Z,11.82
2023-03-31T16:30:27.061Z,11.81
2023-03-31T16:33:52.357Z,11.71
2023-03-31T16:36:55.471Z,11.62
2023-03-31T16:39:57.898Z,11.54
2023-03-31T16:43:11.981Z,11.55
2023-03-31T16:46:13.998Z,11.56
2023-03-31T16:49:17.644Z,11.49
2023-03-31T16:52:23.648Z,11.44
2023-03-31T16:55:26.252Z,11.47
2023-03-31T16:58:31.429Z,11.45
2023-03-31T17:01:33.743Z,11.41
2023-03-31T17:04:38.398Z,11.46
2023-03-31T17:07:40.782Z,11.46
2023-03-31T17:10:52.518Z,11.55
2023-03-31T17:13:56.372Z,11.49
2023-03-31T17:16:58.220Z,11.52
2023-03-31T17:20:04.469Z,11.49
2023-03-31T17:23:08.130Z,11.52
2023-03-31T17:26:14.669Z,11.49
2023-03-31T17:29:16.858Z,11.46
2023-03-31T17:32:19.215Z,11.48
2023-03-31T17:35:23.596Z,11.51
2023-03-31T17:38:25.960Z,11.51
2023-03-31T17:41:30.764Z,11.54
2023-03-31T17:44:32.807Z,11.43
2023-03-31T17:47:34.538Z,11.41
2023-03-31T17:50:38.789Z,11.35
2023-03-31T17:53:41.575Z,11.35
2023-03-31T17:56:45.304Z,11.29
2023-03-31T17:59:48.700Z,11.27
2023-03-31T18:02:51.886Z,11.25
2023-03-31T18:09:25.866Z,11.16
2023-03-31T18:12:28.962Z,11.13
2023-03-31T18:15:31.137Z,11.12
2023-03-31T18:18:33.454Z,11.02
2023-03-31T18:21:37.243Z,11.01
2023-03-31T18:24:42.504Z,10.98
2023-03-31T18:27:44.618Z,10.98
2023-03-31T18:30:48.413Z,10.97
2023-03-31T18:33:52.146Z,10.98
2023-03-31T18:36:55.583Z,10.94
2023-03-31T18:39:57.668Z,10.89
2023-03-31T18:42:59.449Z,10.87
2023-03-31T18:46:01.848Z,10.81
2023-03-31T18:49:04.443Z,10.78
2023-03-31T18:52:07.866Z,10.76
2023-03-31T18:55:10.069Z,10.80
2023-03-31T18:58:12.099Z,10.77
2023-03-31T19:01:40.286Z,10.75
2023-03-31T19:04:42.126Z,10.67
2023-03-31T19:07:46.797Z,10.62
2023-03-31T19:10:49.089Z,10.59
2023-03-31T19:13:52.735Z,10.56
2023-03-31T19:16:55.976Z,10.50
2023-03-31T19:19:57.846Z,10.38
2023-03-31T19:23:02.958Z,10.30
2023-03-31T19:26:05.414Z,10.24
2023-03-31T19:29:09.476Z,10.16
2023-03-31T19:32:12.808Z,10.10
2023-03-31T19:35:15.527Z,10.13
2023-03-31T19:38:21.975Z,10.12
2023-03-31T19:41:23.928Z,10.11
2023-03-31T19:44:25.965Z,10.09
2023-03-31T19:47:27.817Z,10.09
2023-03-31T19:50:29.600Z,10.04
2023-03-31T19:53:35.292Z,10.04
2023-03-31T19:56:37.824Z,10.06
2023-03-31T19:59:39.638Z,10.06
2023-03-31T20:02:43.731Z,10.07
2023-03-31T20:05:46.070Z,10.02
2023-03-31T20:08:52.924Z,10.06
2023-03-31T20:11:54.794Z,10.04
2023-03-31T20:14:59.793Z,9.96
2023-03-31T20:18:02.842Z,9.94
2023-03-31T20:21:06.961Z,9.99
2023-03-31T20:24:16.304Z,10.02
2023-03-31T20:27:18.651Z,10.11
2023-03-31T20:30:20.593Z,10.18
2023-03-31T20:33:24.588Z,10.20
2023-03-31T20:36:31.921Z,10.23
2023-03-31T20:39:38.462Z,10.26
2023-03-31T20:42:40.546Z,10.27
2023-03-31T20:45:42.393Z,10.36
2023-03-31T20:48:49.770Z,10.32
2023-03-31T20:51:51.716Z,10.37
2023-03-31T20:54:54.909Z,10.38
2023-03-31T20:57:57.369Z,10.37
2023-03-31T21:00:59.314Z,10.33
2023-03-31T21:04:08.769Z,10.36
2023-03-31T21:07:10.827Z,10.36
2023-03-31T21:10:16.758Z,10.33
2023-03-31T21:13:18.777Z,10.28
2023-03-31T21:16:21.061Z,10.23
2023-03-31T21:19:22.942Z,10.16
2023-03-31T21:22:24.720Z,10.19
2023-03-31T21:25:28.186Z,10.20
2023-03-31T21:28:36.688Z,10.20
2023-03-31T21:31:38.819Z,10.20
2023-03-31T21:34:40.879Z,10.15
2023-03-31T21:37:42.572Z,10.18
2023-03-31T21:40:48.614Z,10.18
2023-03-31T21:43:51.465Z,10.16
2023-03-31T21:46:53.108Z,10.17
2023-03-31T21:49:55.264Z,10.18
2023-03-31T21:52:57.355Z,10.13
2023-03-31T21:56:00.592Z,10.17
2023-03-31T21:59:04.318Z,10.17
2023-03-31T22:02:06.413Z,10.16
2023-03-31T22:05:09.971Z,10.19
2023-03-31T22:08:11.711Z,10.20
2023-03-31T22:11:15.021Z,10.24
2023-03-31T22:14:16.893Z,10.28
2023-03-31T22:17:20.760Z,10.29
2023-03-31T22:20:22.939Z,10.28
2023-03-31T22:23:25.803Z,10.32
2023-03-31T22:26:31.142Z,10.33
2023-03-31T22:29:33.545Z,10.31
2023-03-31T22:32:36.090Z,10.34
2023-03-31T22:35:38.717Z,10.36
2023-03-31T22:38:41.893Z,10.33
2023-03-31T22:41:45.410Z,10.34
2023-03-31T22:44:47.755Z,10.34
2023-03-31T22:47:49.506Z,10.34
2023-03-31T22:50:51.411Z,10.34
2023-03-31T22:53:54.690Z,10.35
2023-03-31T22:56:57.802Z,10.34
2023-03-31T23:00:04.928Z,10.33
2023-03-31T23:03:06.704Z,10.33
2023-03-31T23:06:09.313Z,10.28
2023-03-31T23:09:11.790Z,10.28
2023-03-31T23:12:15.433Z,10.26
2023-03-31T23:15:18.462Z,10.28
2023-03-31T23:18:21.404Z,10.25
2023-03-31T23:21:25.648Z,10.24
2023-03-31T23:24:29.245Z,10.27
2023-03-31T23:27:34.783Z,10.29
2023-03-31T23:30:38.550Z,10.23
2023-03-31T23:33:40.624Z,10.21
2023-03-31T23:36:42.660Z,10.20
2023-03-31T23:39:44.435Z,10.16
2023-03-31T23:42:47.495Z,10.16
2023-03-31T23:45:49.326Z,10.16
2023-03-31T23:48:51.448Z,10.11
2023-03-31T23:51:57.719Z,10.12
2023-03-31T23:54:59.511Z,10.14
2023-03-31T23:58:03.389Z,10.14
